sensor_id;sensor_type;location;lat;lon;timestamp;temperature;humidity
26270;DHT22;15937;50.612;6.656;2022-11-12T00:00:16;8.80;99.90
26270;DHT22;15937;50.612;6.656;2022-11-12T00:04:18;8.90;99.90
26270;DHT22;15937;50.612;6.656;2022-11-12T00:08:20;8.90;99.90
26270;DHT22;15937;50.612;6.656;2022-11-12T00:12:23;8.70;99.90
26270;DHT22;15937;50.612;6.656;2022-11-12T00:16:25;8.90;99.90
26270;DHT22;15937;50.612;6.656;2022-11-12T00:20:26;9.00;99.90
26270;DHT22;15937;50.612;6.656;2022-11-12T00:24:29;9.00;99.90
26270;DHT22;15937;50.612;6.656;2022-11-12T00:28:31;8.90;99.90
26270;DHT22;15937;50.612;6.656;2022-11-12T00:32:38;8.90;99.90
26270;DHT22;15937;50.612;6.656;2022-11-12T00:36:40;8.70;99.90
26270;DHT22;15937;50.612;6.656;2022-11-12T00:40:42;8.70;99.90
26270;DHT22;15937;50.612;6.656;2022-11-12T00:44:44;8.70;99.90
26270;DHT22;15937;50.612;6.656;2022-11-12T00:48:46;8.60;99.90
26270;DHT22;15937;50.612;6.656;2022-11-12T00:52:50;8.60;99.90
26270;DHT22;15937;50.612;6.656;2022-11-12T00:56:52;8.70;99.90
26270;DHT22;15937;50.612;6.656;2022-11-12T01:00:53;8.60;99.90
26270;DHT22;15937;50.612;6.656;2022-11-12T01:04:55;8.60;99.90
26270;DHT22;15937;50.612;6.656;2022-11-12T01:08:57;8.50;99.90
26270;DHT22;15937;50.612;6.656;2022-11-12T01:12:59;8.50;99.90
26270;DHT22;15937;50.612;6.656;2022-11-12T01:17:00;8.60;99.90
26270;DHT22;15937;50.612;6.656;2022-11-12T01:21:03;8.70;99.90
26270;DHT22;15937;50.612;6.656;2022-11-12T01:25:04;8.80;99.90
26270;DHT22;15937;50.612;6.656;2022-11-12T01:29:07;8.80;99.90
26270;DHT22;15937;50.612;6.656;2022-11-12T01:33:08;8.70;99.90
26270;DHT22;15937;50.612;6.656;2022-11-12T01:37:10;8.70;99.90
26270;DHT22;15937;50.612;6.656;2022-11-12T01:41:20;8.70;99.90
26270;DHT22;15937;50.612;6.656;2022-11-12T01:45:22;8.70;99.90
26270;DHT22;15937;50.612;6.656;2022-11-12T01:49:29;8.70;99.90
26270;DHT22;15937;50.612;6.656;2022-11-12T01:53:36;8.70;99.90
26270;DHT22;15937;50.612;6.656;2022-11-12T01:57:40;8.70;99.90
26270;DHT22;15937;50.612;6.656;2022-11-12T02:01:43;8.60;99.90
26270;DHT22;15937;50.612;6.656;2022-11-12T02:09:55;8.60;99.90
26270;DHT22;15937;50.612;6.656;2022-11-12T02:13:56;8.50;99.90
26270;DHT22;15937;50.612;6.656;2022-11-12T02:17:58;8.40;99.90
26270;DHT22;15937;50.612;6.656;2022-11-12T02:22:00;8.30;99.90
26270;DHT22;15937;50.612;6.656;2022-11-12T02:26:01;8.20;99.90
26270;DHT22;15937;50.612;6.656;2022-11-12T02:30:03;8.10;99.90
26270;DHT22;15937;50.612;6.656;2022-11-12T02:34:05;8.00;99.90
26270;DHT22;15937;50.612;6.656;2022-11-12T02:38:07;8.20;99.90
26270;DHT22;15937;50.612;6.656;2022-11-12T02:42:09;8.20;99.90
26270;DHT22;15937;50.612;6.656;2022-11-12T02:46:10;8.20;99.90
26270;DHT22;15937;50.612;6.656;2022-11-12T02:50:12;8.20;99.90
26270;DHT22;15937;50.612;6.656;2022-11-12T02:54:14;8.00;99.90
26270;DHT22;15937;50.612;6.656;2022-11-12T02:58:15;8.10;99.90
26270;DHT22;15937;50.612;6.656;2022-11-12T03:02:17;8.10;99.90
26270;DHT22;15937;50.612;6.656;2022-11-12T03:06:19;7.90;99.90
26270;DHT22;15937;50.612;6.656;2022-11-12T03:10:20;7.80;99.90
26270;DHT22;15937;50.612;6.656;2022-11-12T03:14:22;7.70;99.90
26270;DHT22;15937;50.612;6.656;2022-11-12T03:18:24;7.50;99.90
26270;DHT22;15937;50.612;6.656;2022-11-12T03:22:26;7.50;99.90
26270;DHT22;15937;50.612;6.656;2022-11-12T03:26:28;7.30;99.90
26270;DHT22;15937;50.612;6.656;2022-11-12T03:30:36;7.20;99.90
26270;DHT22;15937;50.612;6.656;2022-11-12T03:34:38;7.30;99.90
26270;DHT22;15937;50.612;6.656;2022-11-12T03:38:40;7.30;99.90
26270;DHT22;15937;50.612;6.656;2022-11-12T03:42:46;7.30;99.90
26270;DHT22;15937;50.612;6.656;2022-11-12T03:46:48;7.30;99.90
26270;DHT22;15937;50.612;6.656;2022-11-12T03:50:49;7.30;99.90
26270;DHT22;15937;50.612;6.656;2022-11-12T03:54:51;7.30;99.90
26270;DHT22;15937;50.612;6.656;2022-11-12T03:58:53;7.40;99.90
26270;DHT22;15937;50.612;6.656;2022-11-12T04:02:54;7.30;99.90
26270;DHT22;15937;50.612;6.656;2022-11-12T04:06:56;7.30;99.90
26270;DHT22;15937;50.612;6.656;2022-11-12T04:11:16;7.30;99.90
26270;DHT22;15937;50.612;6.656;2022-11-12T04:15:18;7.30;99.90
26270;DHT22;15937;50.612;6.656;2022-11-12T04:19:20;7.30;99.90
26270;DHT22;15937;50.612;6.656;2022-11-12T04:23:40;7.40;99.90
26270;DHT22;15937;50.612;6.656;2022-11-12T04:27:42;7.40;99.90
26270;DHT22;15937;50.612;6.656;2022-11-12T04:31:44;7.50;99.90
26270;DHT22;15937;50.612;6.656;2022-11-12T04:35:45;7.50;99.90
26270;DHT22;15937;50.612;6.656;2022-11-12T04:39:47;7.50;99.90
26270;DHT22;15937;50.612;6.656;2022-11-12T04:43:48;7.50;99.90
26270;DHT22;15937;50.612;6.656;2022-11-12T04:48:09;7.40;99.90
26270;DHT22;15937;50.612;6.656;2022-11-12T04:52:10;7.20;99.90
26270;DHT22;15937;50.612;6.656;2022-11-12T04:56:12;7.20;99.90
26270;DHT22;15937;50.612;6.656;2022-11-12T05:00:14;6.90;99.90
26270;DHT22;15937;50.612;6.656;2022-11-12T05:04:16;6.80;99.90
26270;DHT22;15937;50.612;6.656;2022-11-12T05:08:17;6.80;99.90
26270;DHT22;15937;50.612;6.656;2022-11-12T05:12:19;6.70;99.90
26270;DHT22;15937;50.612;6.656;2022-11-12T05:16:20;6.80;99.90
26270;DHT22;15937;50.612;6.656;2022-11-12T05:20:22;6.80;99.90
26270;DHT22;15937;50.612;6.656;2022-11-12T05:24:24;6.70;99.90
26270;DHT22;15937;50.612;6.656;2022-11-12T05:28:42;6.80;99.90
26270;DHT22;15937;50.612;6.656;2022-11-12T05:32:43;6.70;99.90
26270;DHT22;15937;50.612;6.656;2022-11-12T05:36:45;6.70;99.90
26270;DHT22;15937;50.612;6.656;2022-11-12T05:40:46;6.70;99.90
26270;DHT22;15937;50.612;6.656;2022-11-12T05:44:49;6.60;99.90
26270;DHT22;15937;50.612;6.656;2022-11-12T05:48:50;6.60;99.90
26270;DHT22;15937;50.612;6.656;2022-11-12T05:52:52;6.60;99.90
26270;DHT22;15937;50.612;6.656;2022-11-12T05:56:54;6.60;99.90
26270;DHT22;15937;50.612;6.656;2022-11-12T06:00:56;6.50;99.90
26270;DHT22;15937;50.612;6.656;2022-11-12T06:04:57;6.50;99.90
26270;DHT22;15937;50.612;6.656;2022-11-12T06:09:00;6.50;99.90
26270;DHT22;15937;50.612;6.656;2022-11-12T06:13:03;6.40;99.90
26270;DHT22;15937;50.612;6.656;2022-11-12T06:17:04;6.50;99.90
26270;DHT22;15937;50.612;6.656;2022-11-12T06:21:07;6.50;99.90
26270;DHT22;15937;50.612;6.656;2022-11-12T06:25:28;6.60;99.90
26270;DHT22;15937;50.612;6.656;2022-11-12T06:29:30;6.70;99.90
26270;DHT22;15937;50.612;6.656;2022-11-12T06:33:32;6.80;99.90
26270;DHT22;15937;50.612;6.656;2022-11-12T06:37:33;6.90;99.90
26270;DHT22;15937;50.612;6.656;2022-11-12T06:41:35;6.90;99.90
26270;DHT22;15937;50.612;6.656;2022-11-12T06:45:37;6.90;99.90
26270;DHT22;15937;50.612;6.656;2022-11-12T06:49:39;6.90;99.90
26270;DHT22;15937;50.612;6.656;2022-11-12T06:53:40;6.90;99.90
26270;DHT22;15937;50.612;6.656;2022-11-12T06:57:42;6.80;99.90
26270;DHT22;15937;50.612;6.656;2022-11-12T07:01:44;6.70;99.90
26270;DHT22;15937;50.612;6.656;2022-11-12T07:05:46;6.60;99.90
26270;DHT22;15937;50.612;6.656;2022-11-12T07:09:47;6.50;99.90
26270;DHT22;15937;50.612;6.656;2022-11-12T07:13:49;6.50;99.90
26270;DHT22;15937;50.612;6.656;2022-11-12T07:17:51;6.60;99.90
26270;DHT22;15937;50.612;6.656;2022-11-12T07:21:53;6.70;99.90
26270;DHT22;15937;50.612;6.656;2022-11-12T07:25:55;6.70;99.90
26270;DHT22;15937;50.612;6.656;2022-11-12T07:29:58;6.70;99.90
26270;DHT22;15937;50.612;6.656;2022-11-12T07:33:59;6.80;99.90
26270;DHT22;15937;50.612;6.656;2022-11-12T07:38:01;7.00;99.90
26270;DHT22;15937;50.612;6.656;2022-11-12T07:42:03;7.20;99.90
26270;DHT22;15937;50.612;6.656;2022-11-12T07:46:06;7.30;99.90
26270;DHT22;15937;50.612;6.656;2022-11-12T07:50:11;7.40;99.90
26270;DHT22;15937;50.612;6.656;2022-11-12T07:54:13;7.70;99.90
26270;DHT22;15937;50.612;6.656;2022-11-12T07:58:15;8.00;99.90
26270;DHT22;15937;50.612;6.656;2022-11-12T08:02:19;8.20;99.90
26270;DHT22;15937;50.612;6.656;2022-11-12T08:06:22;8.40;99.90
26270;DHT22;15937;50.612;6.656;2022-11-12T08:10:24;8.60;99.90
26270;DHT22;15937;50.612;6.656;2022-11-12T08:14:25;8.80;99.90
26270;DHT22;15937;50.612;6.656;2022-11-12T08:18:27;8.90;99.90
26270;DHT22;15937;50.612;6.656;2022-11-12T08:22:30;9.10;99.90
26270;DHT22;15937;50.612;6.656;2022-11-12T08:26:32;9.10;99.90
26270;DHT22;15937;50.612;6.656;2022-11-12T08:30:34;9.20;99.90
26270;DHT22;15937;50.612;6.656;2022-11-12T08:34:36;9.20;99.90
26270;DHT22;15937;50.612;6.656;2022-11-12T08:38:41;9.40;99.90
26270;DHT22;15937;50.612;6.656;2022-11-12T08:42:43;9.50;99.90
26270;DHT22;15937;50.612;6.656;2022-11-12T08:46:45;9.70;99.90
26270;DHT22;15937;50.612;6.656;2022-11-12T08:50:47;9.80;99.90
26270;DHT22;15937;50.612;6.656;2022-11-12T08:54:48;10.00;99.90
26270;DHT22;15937;50.612;6.656;2022-11-12T08:58:50;10.30;99.90
26270;DHT22;15937;50.612;6.656;2022-11-12T09:02:51;10.50;99.90
26270;DHT22;15937;50.612;6.656;2022-11-12T09:06:53;10.60;99.90
26270;DHT22;15937;50.612;6.656;2022-11-12T09:10:56;10.80;99.90
26270;DHT22;15937;50.612;6.656;2022-11-12T09:14:58;11.00;99.90
26270;DHT22;15937;50.612;6.656;2022-11-12T09:19:19;11.20;99.90
26270;DHT22;15937;50.612;6.656;2022-11-12T09:23:21;11.30;99.90
26270;DHT22;15937;50.612;6.656;2022-11-12T09:27:25;11.60;99.90
26270;DHT22;15937;50.612;6.656;2022-11-12T09:31:28;11.80;99.90
26270;DHT22;15937;50.612;6.656;2022-11-12T09:35:29;12.00;99.90
26270;DHT22;15937;50.612;6.656;2022-11-12T09:39:31;12.10;99.90
26270;DHT22;15937;50.612;6.656;2022-11-12T09:43:34;12.30;99.90
26270;DHT22;15937;50.612;6.656;2022-11-12T09:47:39;12.50;99.90
26270;DHT22;15937;50.612;6.656;2022-11-12T09:51:48;12.50;99.90
26270;DHT22;15937;50.612;6.656;2022-11-12T09:55:51;12.70;99.90
26270;DHT22;15937;50.612;6.656;2022-11-12T09:59:53;12.90;99.90
26270;DHT22;15937;50.612;6.656;2022-11-12T10:20:48;13.60;99.90
26270;DHT22;15937;50.612;6.656;2022-11-12T10:24:50;13.80;99.90
26270;DHT22;15937;50.612;6.656;2022-11-12T10:32:54;14.50;99.90
26270;DHT22;15937;50.612;6.656;2022-11-12T10:36:59;14.70;99.90
26270;DHT22;15937;50.612;6.656;2022-11-12T10:45:26;14.80;99.90
26270;DHT22;15937;50.612;6.656;2022-11-12T10:49:28;14.90;99.90
26270;DHT22;15937;50.612;6.656;2022-11-12T10:53:37;14.90;99.90
26270;DHT22;15937;50.612;6.656;2022-11-12T10:57:43;15.10;99.90
26270;DHT22;15937;50.612;6.656;2022-11-12T11:01:52;15.20;99.90
26270;DHT22;15937;50.612;6.656;2022-11-12T11:10:00;15.50;98.50
26270;DHT22;15937;50.612;6.656;2022-11-12T11:14:50;15.40;98.40
26270;DHT22;15937;50.612;6.656;2022-11-12T11:18:28;15.70;97.40
26270;DHT22;15937;50.612;6.656;2022-11-12T11:22:41;15.90;95.50
26270;DHT22;15937;50.612;6.656;2022-11-12T11:35:38;16.00;99.90
26270;DHT22;15937;50.612;6.656;2022-11-12T11:39:58;16.30;96.90
26270;DHT22;15937;50.612;6.656;2022-11-12T11:56:51;16.20;99.90
26270;DHT22;15937;50.612;6.656;2022-11-12T12:01:02;16.30;99.90
26270;DHT22;15937;50.612;6.656;2022-11-12T12:05:27;16.20;99.90
26270;DHT22;15937;50.612;6.656;2022-11-12T12:09:33;16.50;99.90
26270;DHT22;15937;50.612;6.656;2022-11-12T12:21:50;16.40;99.90
26270;DHT22;15937;50.612;6.656;2022-11-12T12:25:53;16.30;99.90
26270;DHT22;15937;50.612;6.656;2022-11-12T12:30:02;16.30;99.90
26270;DHT22;15937;50.612;6.656;2022-11-12T12:34:05;16.20;99.90
26270;DHT22;15937;50.612;6.656;2022-11-12T12:42:21;16.30;99.90
26270;DHT22;15937;50.612;6.656;2022-11-12T12:46:27;16.30;99.90
26270;DHT22;15937;50.612;6.656;2022-11-12T12:50:32;16.40;99.90
26270;DHT22;15937;50.612;6.656;2022-11-12T13:02:40;16.30;99.90
26270;DHT22;15937;50.612;6.656;2022-11-12T13:10:47;16.30;99.90
26270;DHT22;15937;50.612;6.656;2022-11-12T13:15:07;16.40;99.90
26270;DHT22;15937;50.612;6.656;2022-11-12T13:19:09;16.60;99.90
26270;DHT22;15937;50.612;6.656;2022-11-12T13:23:41;16.60;99.90
26270;DHT22;15937;50.612;6.656;2022-11-12T13:28:16;16.40;99.90
26270;DHT22;15937;50.612;6.656;2022-11-12T13:36:29;16.20;99.90
26270;DHT22;15937;50.612;6.656;2022-11-12T13:44:51;15.90;99.90
26270;DHT22;15937;50.612;6.656;2022-11-12T13:52:58;15.70;99.90
26270;DHT22;15937;50.612;6.656;2022-11-12T14:01:21;15.80;99.90
26270;DHT22;15937;50.612;6.656;2022-11-12T14:05:27;15.90;99.90
26270;DHT22;15937;50.612;6.656;2022-11-12T14:14:05;15.90;99.90
26270;DHT22;15937;50.612;6.656;2022-11-12T14:22:16;16.00;99.90
26270;DHT22;15937;50.612;6.656;2022-11-12T14:26:32;15.90;99.90
26270;DHT22;15937;50.612;6.656;2022-11-12T14:30:41;15.90;99.90
26270;DHT22;15937;50.612;6.656;2022-11-12T14:34:43;15.90;99.90
26270;DHT22;15937;50.612;6.656;2022-11-12T14:38:49;15.90;99.90
26270;DHT22;15937;50.612;6.656;2022-11-12T14:42:52;15.80;99.90
26270;DHT22;15937;50.612;6.656;2022-11-12T14:46:54;15.90;99.90
26270;DHT22;15937;50.612;6.656;2022-11-12T14:50:59;16.00;99.90
26270;DHT22;15937;50.612;6.656;2022-11-12T14:55:13;15.90;99.90
26270;DHT22;15937;50.612;6.656;2022-11-12T14:59:19;15.90;99.90
26270;DHT22;15937;50.612;6.656;2022-11-12T15:03:22;15.90;99.90
26270;DHT22;15937;50.612;6.656;2022-11-12T15:07:29;15.60;99.90
26270;DHT22;15937;50.612;6.656;2022-11-12T15:11:35;15.60;99.90
26270;DHT22;15937;50.612;6.656;2022-11-12T15:15:59;15.60;99.90
26270;DHT22;15937;50.612;6.656;2022-11-12T15:20:04;15.50;99.90
26270;DHT22;15937;50.612;6.656;2022-11-12T15:28:20;15.40;99.90
26270;DHT22;15937;50.612;6.656;2022-11-12T15:32:29;15.30;99.90
26270;DHT22;15937;50.612;6.656;2022-11-12T15:36:31;15.20;99.90
26270;DHT22;15937;50.612;6.656;2022-11-12T15:40:39;15.10;99.90
26270;DHT22;15937;50.612;6.656;2022-11-12T15:44:59;15.00;99.90
26270;DHT22;15937;50.612;6.656;2022-11-12T15:49:11;14.90;99.90
26270;DHT22;15937;50.612;6.656;2022-11-12T15:53:17;14.80;99.90
26270;DHT22;15937;50.612;6.656;2022-11-12T15:57:27;14.60;99.90
26270;DHT22;15937;50.612;6.656;2022-11-12T16:11:39;14.20;99.90
26270;DHT22;15937;50.612;6.656;2022-11-12T16:15:41;13.90;99.90
26270;DHT22;15937;50.612;6.656;2022-11-12T16:19:44;13.90;99.90
26270;DHT22;15937;50.612;6.656;2022-11-12T16:23:45;13.80;99.90
26270;DHT22;15937;50.612;6.656;2022-11-12T16:27:49;13.70;99.90
26270;DHT22;15937;50.612;6.656;2022-11-12T16:32:02;13.50;99.90
26270;DHT22;15937;50.612;6.656;2022-11-12T16:36:13;13.60;99.90
26270;DHT22;15937;50.612;6.656;2022-11-12T16:40:22;13.60;99.90
26270;DHT22;15937;50.612;6.656;2022-11-12T16:44:38;13.60;99.90
26270;DHT22;15937;50.612;6.656;2022-11-12T16:49:17;13.50;99.90
26270;DHT22;15937;50.612;6.656;2022-11-12T16:53:40;13.50;99.90
26270;DHT22;15937;50.612;6.656;2022-11-12T16:57:45;13.50;99.90
26270;DHT22;15937;50.612;6.656;2022-11-12T17:01:57;13.30;99.90
26270;DHT22;15937;50.612;6.656;2022-11-12T17:06:01;13.20;99.90
26270;DHT22;15937;50.612;6.656;2022-11-12T17:10:06;13.10;99.90
26270;DHT22;15937;50.612;6.656;2022-11-12T17:14:09;13.10;99.90
26270;DHT22;15937;50.612;6.656;2022-11-12T17:18:13;13.00;99.90
26270;DHT22;15937;50.612;6.656;2022-11-12T17:22:15;13.10;99.90
26270;DHT22;15937;50.612;6.656;2022-11-12T17:26:18;13.10;99.90
26270;DHT22;15937;50.612;6.656;2022-11-12T17:30:21;12.90;99.90
26270;DHT22;15937;50.612;6.656;2022-11-12T17:34:27;12.40;99.90
26270;DHT22;15937;50.612;6.656;2022-11-12T17:38:29;12.30;99.90
26270;DHT22;15937;50.612;6.656;2022-11-12T17:42:34;12.30;99.90
26270;DHT22;15937;50.612;6.656;2022-11-12T17:46:37;12.20;99.90
26270;DHT22;15937;50.612;6.656;2022-11-12T17:50:47;12.00;99.90
26270;DHT22;15937;50.612;6.656;2022-11-12T17:54:51;12.00;99.90
26270;DHT22;15937;50.612;6.656;2022-11-12T17:58:54;11.80;99.90
26270;DHT22;15937;50.612;6.656;2022-11-12T18:02:58;11.80;99.90
26270;DHT22;15937;50.612;6.656;2022-11-12T18:07:00;11.90;99.90
26270;DHT22;15937;50.612;6.656;2022-11-12T18:11:21;11.80;99.90
26270;DHT22;15937;50.612;6.656;2022-11-12T18:15:29;12.20;99.90
26270;DHT22;15937;50.612;6.656;2022-11-12T18:19:33;12.30;99.90
26270;DHT22;15937;50.612;6.656;2022-11-12T18:23:39;12.40;99.90
26270;DHT22;15937;50.612;6.656;2022-11-12T18:27:42;12.50;99.90
26270;DHT22;15937;50.612;6.656;2022-11-12T18:31:44;12.60;99.90
26270;DHT22;15937;50.612;6.656;2022-11-12T18:36:13;12.70;99.90
26270;DHT22;15937;50.612;6.656;2022-11-12T18:40:19;12.60;99.90
26270;DHT22;15937;50.612;6.656;2022-11-12T18:44:30;12.60;99.90
26270;DHT22;15937;50.612;6.656;2022-11-12T18:48:44;12.60;99.90
26270;DHT22;15937;50.612;6.656;2022-11-12T18:52:52;12.60;99.90
26270;DHT22;15937;50.612;6.656;2022-11-12T18:56:59;12.50;99.90
26270;DHT22;15937;50.612;6.656;2022-11-12T19:01:02;12.30;99.90
26270;DHT22;15937;50.612;6.656;2022-11-12T19:05:06;12.10;99.90
26270;DHT22;15937;50.612;6.656;2022-11-12T19:09:12;12.00;99.90
26270;DHT22;15937;50.612;6.656;2022-11-12T19:13:17;12.10;99.90
26270;DHT22;15937;50.612;6.656;2022-11-12T19:17:19;12.20;99.90
26270;DHT22;15937;50.612;6.656;2022-11-12T19:21:22;12.00;99.90
26270;DHT22;15937;50.612;6.656;2022-11-12T19:25:33;12.20;99.90
26270;DHT22;15937;50.612;6.656;2022-11-12T19:29:35;12.10;99.90
26270;DHT22;15937;50.612;6.656;2022-11-12T19:33:37;11.90;99.90
26270;DHT22;15937;50.612;6.656;2022-11-12T19:37:49;12.00;99.90
26270;DHT22;15937;50.612;6.656;2022-11-12T19:41:51;11.90;99.90
26270;DHT22;15937;50.612;6.656;2022-11-12T19:45:58;11.80;99.90
26270;DHT22;15937;50.612;6.656;2022-11-12T19:50:08;11.80;99.90
26270;DHT22;15937;50.612;6.656;2022-11-12T19:54:11;11.70;99.90
26270;DHT22;15937;50.612;6.656;2022-11-12T19:58:12;11.50;99.90
26270;DHT22;15937;50.612;6.656;2022-11-12T20:02:15;11.60;99.90
26270;DHT22;15937;50.612;6.656;2022-11-12T20:06:18;11.50;99.90
26270;DHT22;15937;50.612;6.656;2022-11-12T20:10:20;11.30;99.90
26270;DHT22;15937;50.612;6.656;2022-11-12T20:14:29;11.40;99.90
26270;DHT22;15937;50.612;6.656;2022-11-12T20:18:31;11.60;99.90
26270;DHT22;15937;50.612;6.656;2022-11-12T20:22:33;11.40;99.90
26270;DHT22;15937;50.612;6.656;2022-11-12T20:26:35;11.60;99.90
26270;DHT22;15937;50.612;6.656;2022-11-12T20:30:39;11.50;99.90
26270;DHT22;15937;50.612;6.656;2022-11-12T20:34:53;11.60;99.90
26270;DHT22;15937;50.612;6.656;2022-11-12T20:38:55;11.60;99.90
26270;DHT22;15937;50.612;6.656;2022-11-12T20:42:57;11.70;99.90
26270;DHT22;15937;50.612;6.656;2022-11-12T20:46:58;11.60;99.90
26270;DHT22;15937;50.612;6.656;2022-11-12T20:51:12;11.70;99.90
26270;DHT22;15937;50.612;6.656;2022-11-12T20:55:25;11.80;99.90
26270;DHT22;15937;50.612;6.656;2022-11-12T20:59:27;11.70;99.90
26270;DHT22;15937;50.612;6.656;2022-11-12T21:03:29;11.50;99.90
26270;DHT22;15937;50.612;6.656;2022-11-12T21:07:31;11.50;99.90
26270;DHT22;15937;50.612;6.656;2022-11-12T21:11:33;11.50;99.90
26270;DHT22;15937;50.612;6.656;2022-11-12T21:15:35;11.30;99.90
26270;DHT22;15937;50.612;6.656;2022-11-12T21:19:39;10.70;99.90
26270;DHT22;15937;50.612;6.656;2022-11-12T21:23:41;10.20;99.90
26270;DHT22;15937;50.612;6.656;2022-11-12T21:27:46;10.10;99.90
26270;DHT22;15937;50.612;6.656;2022-11-12T21:31:48;10.10;99.90
26270;DHT22;15937;50.612;6.656;2022-11-12T21:35:50;9.80;99.90
26270;DHT22;15937;50.612;6.656;2022-11-12T21:39:52;9.80;99.90
26270;DHT22;15937;50.612;6.656;2022-11-12T21:43:54;9.80;99.90
26270;DHT22;15937;50.612;6.656;2022-11-12T21:47:56;9.90;99.90
26270;DHT22;15937;50.612;6.656;2022-11-12T21:52:07;9.50;99.90
26270;DHT22;15937;50.612;6.656;2022-11-12T21:56:12;9.40;99.90
26270;DHT22;15937;50.612;6.656;2022-11-12T22:00:15;9.40;99.90
26270;DHT22;15937;50.612;6.656;2022-11-12T22:04:36;9.50;99.90
26270;DHT22;15937;50.612;6.656;2022-11-12T22:08:38;9.80;99.90
26270;DHT22;15937;50.612;6.656;2022-11-12T22:12:40;9.30;99.90
26270;DHT22;15937;50.612;6.656;2022-11-12T22:17:02;9.20;99.90
26270;DHT22;15937;50.612;6.656;2022-11-12T22:21:08;9.10;99.90
26270;DHT22;15937;50.612;6.656;2022-11-12T22:25:11;9.20;99.90
26270;DHT22;15937;50.612;6.656;2022-11-12T22:29:13;9.20;99.90
26270;DHT22;15937;50.612;6.656;2022-11-12T22:33:15;9.20;99.90
26270;DHT22;15937;50.612;6.656;2022-11-12T22:37:16;9.10;99.90
26270;DHT22;15937;50.612;6.656;2022-11-12T22:41:19;9.10;99.90
26270;DHT22;15937;50.612;6.656;2022-11-12T22:45:22;8.90;99.90
26270;DHT22;15937;50.612;6.656;2022-11-12T22:49:25;9.30;99.90
26270;DHT22;15937;50.612;6.656;2022-11-12T22:53:27;9.30;99.90
26270;DHT22;15937;50.612;6.656;2022-11-12T22:57:29;9.40;99.90
26270;DHT22;15937;50.612;6.656;2022-11-12T23:01:43;9.50;99.90
26270;DHT22;15937;50.612;6.656;2022-11-12T23:05:46;9.60;99.90
26270;DHT22;15937;50.612;6.656;2022-11-12T23:09:50;9.50;99.90
26270;DHT22;15937;50.612;6.656;2022-11-12T23:14:00;9.60;99.90
26270;DHT22;15937;50.612;6.656;2022-11-12T23:18:02;9.50;99.90
26270;DHT22;15937;50.612;6.656;2022-11-12T23:22:04;9.60;99.90
26270;DHT22;15937;50.612;6.656;2022-11-12T23:26:09;9.50;99.90
26270;DHT22;15937;50.612;6.656;2022-11-12T23:30:11;9.70;99.90
26270;DHT22;15937;50.612;6.656;2022-11-12T23:34:13;9.30;99.90
26270;DHT22;15937;50.612;6.656;2022-11-12T23:38:15;8.90;99.90
26270;DHT22;15937;50.612;6.656;2022-11-12T23:42:16;9.30;99.90
26270;DHT22;15937;50.612;6.656;2022-11-12T23:46:18;9.20;99.90
26270;DHT22;15937;50.612;6.656;2022-11-12T23:50:19;9.40;99.90
26270;DHT22;15937;50.612;6.656;2022-11-12T23:54:24;9.40;99.90
26270;DHT22;15937;50.612;6.656;2022-11-12T23:58:26;9.60;99.90
